createdAt,value
2022-12-26T00:04:53.810Z,99.90
2022-12-26T00:09:52.876Z,99.90
2022-12-26T00:14:51.826Z,99.90
2022-12-26T00:19:50.905Z,99.90
2022-12-26T00:24:49.927Z,99.90
2022-12-26T00:29:48.744Z,99.90
2022-12-26T00:34:47.744Z,99.90
2022-12-26T00:39:46.860Z,99.90
2022-12-26T00:44:45.775Z,99.90
2022-12-26T00:50:12.274Z,99.90
2022-12-26T00:54:45.850Z,99.90
2022-12-26T00:59:44.880Z,99.90
2022-12-26T01:04:43.658Z,99.90
2022-12-26T01:09:42.871Z,99.90
2022-12-26T01:14:41.887Z,99.90
2022-12-26T01:19:41.401Z,99.90
2022-12-26T01:24:41.026Z,99.90
2022-12-26T01:29:39.741Z,99.90
2022-12-26T01:34:39.056Z,99.90
2022-12-26T01:39:37.948Z,99.90
2022-12-26T01:44:38.165Z,99.90
2022-12-26T01:49:36.866Z,99.90
2022-12-26T01:54:41.208Z,99.90
2022-12-26T01:59:36.881Z,99.90
2022-12-26T02:04:53.832Z,99.90
2022-12-26T02:09:52.999Z,99.90
2022-12-26T02:14:51.921Z,99.90
2022-12-26T02:19:50.925Z,99.90
2022-12-26T02:24:49.770Z,99.90
2022-12-26T02:29:48.948Z,99.90
2022-12-26T02:34:47.780Z,99.90
2022-12-26T02:39:47.065Z,99.90
2022-12-26T02:45:04.074Z,99.90
2022-12-26T02:50:20.913Z,99.90
2022-12-26T02:55:38.152Z,99.90
2022-12-26T03:00:55.268Z,99.90
2022-12-26T03:06:12.980Z,99.90
2022-12-26T03:11:30.095Z,99.90
2022-12-26T03:16:47.058Z,99.90
2022-12-26T03:21:45.878Z,99.90
2022-12-26T03:26:46.804Z,99.90
2022-12-26T03:31:45.962Z,99.90
2022-12-26T03:36:44.838Z,99.90
2022-12-26T03:42:02.104Z,99.90
2022-12-26T03:47:19.145Z,99.90
2022-12-26T03:52:36.000Z,99.90
2022-12-26T03:57:53.080Z,99.90
2022-12-26T04:03:10.301Z,99.90
2022-12-26T04:08:28.005Z,99.90
2022-12-26T04:13:44.709Z,99.90
2022-12-26T04:19:01.952Z,99.90
2022-12-26T04:24:19.316Z,99.90
2022-12-26T04:29:36.218Z,99.90
2022-12-26T04:34:53.283Z,99.90
2022-12-26T04:40:10.035Z,99.90
2022-12-26T04:45:08.957Z,99.90
2022-12-26T04:50:14.573Z,99.90
2022-12-26T04:55:13.932Z,99.90
2022-12-26T05:00:12.956Z,99.90
2022-12-26T05:05:31.936Z,99.90
2022-12-26T05:10:30.873Z,99.90
2022-12-26T05:15:32.144Z,99.90
2022-12-26T05:20:50.350Z,99.90
2022-12-26T05:26:10.067Z,99.90
2022-12-26T05:31:09.026Z,99.90
2022-12-26T05:36:07.800Z,99.90
2022-12-26T05:41:07.092Z,99.90
2022-12-26T05:46:06.117Z,99.90
2022-12-26T05:51:05.108Z,99.90
2022-12-26T05:56:04.643Z,99.90
2022-12-26T06:01:04.676Z,99.90
2022-12-26T06:06:04.188Z,99.90
2022-12-26T06:11:02.951Z,99.90
2022-12-26T06:16:01.943Z,99.90
2022-12-26T06:21:00.885Z,99.90
2022-12-26T06:26:00.062Z,99.90
2022-12-26T06:30:59.079Z,99.90
2022-12-26T06:35:58.067Z,99.90
2022-12-26T06:40:57.077Z,99.90
2022-12-26T06:45:56.154Z,99.90
2022-12-26T06:50:55.020Z,99.90
2022-12-26T06:55:54.119Z,99.90
2022-12-26T07:00:53.172Z,99.90
2022-12-26T07:05:52.129Z,99.90
2022-12-26T07:10:50.935Z,99.90
2022-12-26T07:15:50.158Z,99.90
2022-12-26T07:20:49.048Z,99.90
2022-12-26T07:25:48.236Z,99.90
2022-12-26T07:30:47.263Z,99.90
2022-12-26T07:35:45.988Z,99.90
2022-12-26T07:40:45.001Z,99.90
2022-12-26T07:45:46.053Z,99.90
2022-12-26T07:50:46.841Z,99.90
2022-12-26T07:55:46.236Z,99.90
2022-12-26T08:00:45.314Z,99.90
2022-12-26T08:05:44.153Z,99.90
2022-12-26T08:10:43.419Z,99.90
2022-12-26T08:15:41.972Z,99.90
2022-12-26T08:20:40.993Z,99.90
2022-12-26T08:25:40.005Z,99.90
2022-12-26T08:30:39.014Z,99.90
2022-12-26T08:35:38.017Z,99.90
2022-12-26T08:40:44.632Z,99.90
2022-12-26T08:45:38.122Z,99.90
2022-12-26T08:50:40.997Z,99.90
2022-12-26T08:55:38.145Z,99.90
2022-12-26T09:00:37.288Z,99.90
2022-12-26T09:05:36.269Z,99.90
2022-12-26T09:10:35.212Z,99.90
2022-12-26T09:15:34.209Z,99.90
2022-12-26T09:20:33.136Z,99.90
2022-12-26T09:25:32.046Z,99.90
2022-12-26T09:30:31.176Z,99.90
2022-12-26T09:35:30.119Z,99.90
2022-12-26T09:40:29.218Z,99.90
2022-12-26T09:45:28.066Z,99.90
2022-12-26T09:50:27.113Z,99.90
2022-12-26T09:55:26.352Z,99.90
2022-12-26T10:00:25.102Z,99.90
2022-12-26T10:05:24.118Z,99.90
2022-12-26T10:10:23.087Z,99.90
2022-12-26T10:15:21.944Z,99.90
2022-12-26T10:20:21.021Z,99.90
2022-12-26T10:25:19.983Z,99.90
2022-12-26T10:30:19.082Z,99.90
2022-12-26T10:35:18.185Z,99.90
2022-12-26T10:40:17.211Z,99.90
2022-12-26T10:45:16.250Z,99.70
2022-12-26T10:50:15.249Z,99.60
2022-12-26T10:55:27.049Z,99.30
2022-12-26T11:00:15.116Z,99.10
2022-12-26T11:05:27.184Z,99.00
2022-12-26T11:10:15.204Z,98.60
2022-12-26T11:15:14.196Z,98.30
2022-12-26T11:20:13.181Z,98.10
2022-12-26T11:25:12.017Z,98.20
2022-12-26T11:30:11.141Z,97.90
2022-12-26T11:35:11.046Z,97.60
2022-12-26T11:40:10.989Z,97.20
2022-12-26T11:45:10.279Z,96.40
2022-12-26T11:50:09.294Z,96.50
2022-12-26T11:55:08.197Z,96.40
2022-12-26T12:00:12.072Z,95.70
2022-12-26T12:05:11.244Z,95.60
2022-12-26T12:10:11.880Z,95.40
2022-12-26T12:15:13.111Z,95.10
2022-12-26T12:20:12.087Z,95.30
2022-12-26T12:25:11.172Z,95.50
2022-12-26T12:30:11.115Z,95.60
2022-12-26T12:35:11.110Z,96.00
2022-12-26T12:40:10.281Z,97.60
2022-12-26T12:45:09.281Z,99.90
2022-12-26T12:50:08.304Z,99.90
2022-12-26T12:55:07.089Z,99.90
2022-12-26T13:00:06.140Z,99.90
2022-12-26T13:05:05.424Z,99.90
2022-12-26T13:10:04.145Z,99.90
2022-12-26T13:15:03.227Z,99.90
2022-12-26T13:20:03.043Z,99.90
2022-12-26T13:25:02.093Z,99.90
2022-12-26T13:30:01.099Z,99.90
2022-12-26T13:35:00.124Z,99.90
2022-12-26T13:39:59.126Z,99.90
2022-12-26T13:44:58.282Z,99.90
2022-12-26T13:49:57.240Z,99.90
2022-12-26T13:54:56.940Z,99.90
2022-12-26T13:59:56.109Z,99.90
2022-12-26T14:04:55.337Z,99.90
2022-12-26T14:09:54.407Z,99.90
2022-12-26T14:14:54.527Z,99.90
2022-12-26T14:19:54.325Z,99.90
2022-12-26T14:24:53.399Z,99.90
2022-12-26T14:29:52.284Z,99.90
2022-12-26T14:34:51.232Z,99.90
2022-12-26T14:39:50.277Z,99.90
2022-12-26T14:44:49.232Z,99.90
2022-12-26T14:49:48.095Z,99.90
2022-12-26T14:54:51.325Z,99.90
2022-12-26T14:59:48.315Z,99.40
2022-12-26T15:04:47.310Z,99.00
2022-12-26T15:09:46.156Z,99.10
2022-12-26T15:14:45.148Z,96.70
2022-12-26T15:19:44.368Z,96.30
2022-12-26T15:25:17.591Z,95.90
2022-12-26T15:29:44.230Z,96.00
2022-12-26T15:34:43.218Z,96.40
2022-12-26T15:39:42.269Z,95.40
2022-12-26T15:44:41.175Z,96.10
2022-12-26T15:49:40.256Z,96.20
2022-12-26T15:54:39.210Z,95.60
2022-12-26T15:59:38.291Z,95.50
2022-12-26T16:04:37.199Z,95.50
2022-12-26T16:09:36.311Z,95.30
2022-12-26T16:14:35.220Z,95.40
2022-12-26T16:19:34.357Z,95.40
2022-12-26T16:24:33.327Z,95.70
2022-12-26T16:29:32.265Z,96.00
2022-12-26T16:34:31.231Z,95.50
2022-12-26T16:39:30.391Z,95.80
2022-12-26T16:44:30.699Z,94.90
2022-12-26T16:49:31.017Z,94.10
2022-12-26T16:54:30.465Z,94.50
2022-12-26T16:59:29.188Z,94.60
2022-12-26T17:04:28.216Z,94.60
2022-12-26T17:09:27.339Z,94.60
2022-12-26T17:14:26.327Z,94.20
2022-12-26T17:19:25.336Z,94.50
2022-12-26T17:24:26.152Z,94.00
2022-12-26T17:29:25.508Z,93.80
2022-12-26T17:34:27.494Z,93.50
2022-12-26T17:39:26.349Z,93.60
2022-12-26T17:44:25.276Z,92.20
2022-12-26T17:49:24.311Z,92.30
2022-12-26T17:54:23.639Z,92.40
2022-12-26T17:59:22.335Z,92.40
2022-12-26T18:04:21.377Z,92.30
2022-12-26T18:09:20.384Z,92.70
2022-12-26T18:14:19.375Z,92.60
2022-12-26T18:19:18.503Z,92.70
2022-12-26T18:24:17.452Z,92.50
2022-12-26T18:29:16.219Z,92.70
2022-12-26T18:34:15.431Z,92.90
2022-12-26T18:39:14.717Z,92.70
2022-12-26T18:44:15.262Z,92.80
2022-12-26T18:49:16.426Z,93.00
2022-12-26T18:54:15.437Z,93.10
2022-12-26T18:59:14.364Z,93.10
2022-12-26T19:04:13.464Z,93.10
2022-12-26T19:09:12.411Z,93.10
2022-12-26T19:14:11.432Z,93.20
2022-12-26T19:19:10.546Z,93.10
2022-12-26T19:24:09.346Z,93.20
2022-12-26T19:29:08.522Z,93.20
2022-12-26T19:34:07.376Z,93.20
2022-12-26T19:39:06.472Z,93.30
2022-12-26T19:44:05.497Z,93.30
2022-12-26T19:49:04.490Z,93.30
2022-12-26T19:54:03.585Z,93.40
2022-12-26T19:59:02.497Z,93.50
2022-12-26T20:04:01.614Z,93.50
2022-12-26T20:09:00.546Z,93.60
2022-12-26T20:13:59.551Z,93.50
2022-12-26T20:18:58.352Z,93.50
2022-12-26T20:23:57.541Z,93.50
2022-12-26T20:28:56.365Z,93.60
2022-12-26T20:33:57.282Z,93.60
2022-12-26T20:38:56.464Z,93.60
2022-12-26T20:43:55.478Z,93.70
2022-12-26T20:48:54.470Z,93.80
2022-12-26T20:53:53.599Z,93.80
2022-12-26T20:58:52.313Z,93.90
2022-12-26T21:03:51.491Z,93.90
2022-12-26T21:08:50.475Z,93.90
2022-12-26T21:13:49.513Z,93.90
2022-12-26T21:18:48.587Z,93.90
2022-12-26T21:23:47.425Z,93.90
2022-12-26T21:28:46.692Z,93.90
2022-12-26T21:33:45.346Z,93.90
2022-12-26T21:38:44.585Z,94.00
2022-12-26T21:43:43.596Z,94.10
2022-12-26T21:48:44.858Z,94.10
2022-12-26T21:53:43.472Z,94.00
2022-12-26T21:59:03.601Z,93.90
2022-12-26T22:04:20.478Z,94.10
2022-12-26T22:09:19.637Z,94.00
2022-12-26T22:14:18.643Z,94.00
2022-12-26T22:19:17.560Z,93.90
2022-12-26T22:24:16.479Z,93.90
2022-12-26T22:29:15.507Z,93.90
2022-12-26T22:34:14.565Z,93.80
2022-12-26T22:39:13.500Z,93.80
2022-12-26T22:44:12.496Z,93.90
2022-12-26T22:49:11.502Z,93.90
2022-12-26T22:54:10.540Z,93.90
2022-12-26T22:59:09.434Z,93.90
2022-12-26T23:04:08.651Z,94.00
2022-12-26T23:09:07.545Z,94.00
2022-12-26T23:14:06.458Z,94.00
2022-12-26T23:19:23.418Z,94.10
2022-12-26T23:24:22.700Z,94.00
2022-12-26T23:29:39.641Z,94.00
2022-12-26T23:34:38.539Z,94.00
2022-12-26T23:39:40.679Z,94.10
2022-12-26T23:44:39.649Z,94.10
2022-12-26T23:49:38.559Z,94.10
2022-12-26T23:54:37.450Z,94.20
2022-12-26T23:59:36.601Z,94.30
